HARTSFIELD - JACKSON ATLANTA INTL

KATL (ATL)
Atlanta, Georgia
Towered

Vatsim Metar:
KATL 131813Z 31005KT 10SM FEW200 SCT250 SCT300 28/09 A3007 RMK AO2 T02830089